Terminal Aerodrome Forecast
Issued by NWS

Home | Current Version | Previous Version | Text Only | Print | Product List | Glossary On
Versions: 1 2 3 4 5 6 7 8 9 10 11 12
000
FTAK31 PAJN 012300
TAFAKT
TAF
PAKT 012320Z 0200/0224 31008KT P6SM SCT035
     FM020300 VRB04KT P6SM SKC
     FM021500 14008KT P6SM BKN100
     FM022100 14015KT P6SM -RA SCT025 BKN050 OVC100 WS020/12035KT
      AMD LTD TO CLD VIS AND WIND 0206/0215=

USA.gov is the U.S. government's official web portal to all federal, state and local government web resources and services.